Time;durP1;ratioP1;P1;durP2;ratioP2;P2;SDS_P1;SDS_P2;PMS_P1;PMS_P2;Temp;Humidity;BMP_temperature;BMP_pressure;BME280_temperature;BME280_humidity;BME280_pressure;Samples;Min_cycle;Max_cycle;Signal;HPM_P1;HPM_P2
2023/10/31 00:02:04;;;;;;;6.93;3.90;;;10.80;99.90;;;;;;4966061;28;20228;-83
2023/10/31 00:04:32;;;;;;;5.63;3.90;;;10.80;99.90;;;;;;4970644;28;20255;-83
2023/10/31 00:06:58;;;;;;;6.97;4.30;;;10.80;99.90;;;;;;4981859;28;20225;-83
2023/10/31 00:09:25;;;;;;;4.83;3.67;;;10.80;99.90;;;;;;4949396;28;20237;-83
2023/10/31 00:11:52;;;;;;;5.13;3.90;;;10.80;99.90;;;;;;4958691;28;20528;-83
2023/10/31 00:14:18;;;;;;;7.00;3.70;;;10.90;99.90;;;;;;4954815;28;20299;-83
2023/10/31 00:16:45;;;;;;;6.67;3.60;;;10.90;99.90;;;;;;4969041;28;20708;-83
2023/10/31 00:19:12;;;;;;;6.23;3.47;;;10.90;99.90;;;;;;4979723;28;20242;-84
2023/10/31 00:21:40;;;;;;;4.53;3.60;;;10.90;99.90;;;;;;4978739;28;20238;-83
2023/10/31 00:24:07;;;;;;;4.87;3.40;;;10.90;99.90;;;;;;4994051;28;20235;-83
2023/10/31 00:26:34;;;;;;;7.77;3.37;;;10.90;99.90;;;;;;4982355;28;20230;-83
2023/10/31 00:29:01;;;;;;;6.63;3.87;;;10.90;99.90;;;;;;4999799;28;20301;-84
2023/10/31 00:31:27;;;;;;;4.67;3.40;;;11.00;99.90;;;;;;4976762;28;20292;-84
2023/10/31 00:33:55;;;;;;;4.07;3.13;;;11.00;99.90;;;;;;5000295;28;20228;-82
2023/10/31 00:36:22;;;;;;;6.43;3.43;;;11.00;99.90;;;;;;5000639;28;20330;-83
2023/10/31 00:38:51;;;;;;;4.93;2.80;;;11.00;99.90;;;;;;4981452;28;20230;-83
2023/10/31 00:41:17;;;;;;;5.70;3.20;;;11.00;99.90;;;;;;4977049;28;20225;-83
2023/10/31 00:43:44;;;;;;;7.17;3.60;;;11.00;99.90;;;;;;4972604;28;20234;-83
2023/10/31 00:46:11;;;;;;;6.93;3.50;;;11.00;99.90;;;;;;4972109;28;20231;-82
2023/10/31 00:48:38;;;;;;;6.43;3.43;;;11.00;99.90;;;;;;4975750;28;20235;-82
2023/10/31 00:51:06;;;;;;;7.83;3.30;;;11.00;99.90;;;;;;4962577;28;20257;-82
2023/10/31 00:53:33;;;;;;;5.37;2.90;;;11.00;99.90;;;;;;4965172;28;20319;-84
2023/10/31 00:56:03;;;;;;;5.33;3.13;;;11.10;99.90;;;;;;4952782;28;20478;-84
2023/10/31 00:58:31;;;;;;;5.47;3.30;;;11.00;99.90;;;;;;4947613;28;20751;-83
2023/10/31 01:00:58;;;;;;;5.40;3.40;;;11.00;99.90;;;;;;4955017;28;20719;-83
2023/10/31 01:03:25;;;;;;;5.97;3.60;;;11.00;99.90;;;;;;4954002;28;20275;-83
2023/10/31 01:05:52;;;;;;;5.90;3.50;;;11.10;99.90;;;;;;4953911;28;20262;-83
2023/10/31 01:08:19;;;;;;;3.90;3.20;;;11.00;99.90;;;;;;4974814;28;20318;-83
2023/10/31 01:10:47;;;;;;;5.60;3.43;;;11.10;99.90;;;;;;4953122;28;20242;-83
2023/10/31 01:13:15;;;;;;;6.00;3.40;;;11.10;99.90;;;;;;4949602;28;20322;-83
2023/10/31 01:15:42;;;;;;;5.50;3.40;;;11.10;99.90;;;;;;4962088;28;20224;-83
2023/10/31 01:18:09;;;;;;;4.20;3.13;;;11.10;99.90;;;;;;4973426;28;20233;-83
2023/10/31 01:20:35;;;;;;;5.67;3.30;;;11.10;99.90;;;;;;4958125;28;20256;-83
2023/10/31 01:23:02;;;;;;;5.13;3.53;;;11.10;99.90;;;;;;4958500;28;20262;-82
2023/10/31 01:25:29;;;;;;;6.17;3.10;;;11.10;99.90;;;;;;4969744;28;20295;-83
2023/10/31 01:27:56;;;;;;;8.17;3.80;;;11.10;99.90;;;;;;4950266;28;20249;-83
2023/10/31 01:30:24;;;;;;;5.20;3.20;;;11.10;99.90;;;;;;4954904;28;20500;-83
2023/10/31 01:32:51;;;;;;;7.23;3.30;;;11.10;99.90;;;;;;4982372;28;20230;-83
2023/10/31 01:35:18;;;;;;;5.37;3.37;;;11.10;99.90;;;;;;4958137;28;20238;-84
2023/10/31 01:37:44;;;;;;;8.47;3.70;;;11.10;99.90;;;;;;4968099;28;20768;-84
2023/10/31 01:40:13;;;;;;;8.17;3.67;;;11.10;99.90;;;;;;4973365;28;20813;-84
2023/10/31 01:42:40;;;;;;;6.73;3.30;;;11.10;99.90;;;;;;4964200;28;20233;-85
2023/10/31 01:45:08;;;;;;;6.43;4.13;;;11.10;99.90;;;;;;4975489;28;20316;-83
2023/10/31 01:47:36;;;;;;;4.80;3.23;;;11.20;99.90;;;;;;4966327;28;20248;-84
2023/10/31 01:50:04;;;;;;;5.77;3.30;;;11.20;99.90;;;;;;4977545;28;20441;-83
2023/10/31 01:52:32;;;;;;;4.60;3.60;;;11.20;99.90;;;;;;4947588;28;20728;-84
2023/10/31 01:55:00;;;;;;;6.77;3.47;;;11.20;99.90;;;;;;4962879;28;20224;-84
2023/10/31 01:57:27;;;;;;;5.53;3.57;;;11.20;99.90;;;;;;4951163;28;20221;-84
2023/10/31 01:59:53;;;;;;;6.83;3.70;;;11.20;99.90;;;;;;4959652;28;20598;-84
2023/10/31 02:02:23;;;;;;;3.77;3.10;;;11.20;99.90;;;;;;4963132;28;20230;-84
2023/10/31 02:04:51;;;;;;;3.97;3.23;;;11.20;99.90;;;;;;4957018;28;20316;-84
2023/10/31 02:07:18;;;;;;;7.47;3.57;;;11.20;99.90;;;;;;4959853;28;20249;-84
2023/10/31 02:09:46;;;;;;;5.97;3.20;;;11.20;99.90;;;;;;4973166;28;20246;-85
2023/10/31 02:12:31;;;;;;;7.10;3.60;;;11.20;99.90;;;;;;4958757;28;20238;-83
2023/10/31 02:14:58;;;;;;;5.87;3.53;;;11.20;99.90;;;;;;4954955;28;20783;-84
2023/10/31 02:17:24;;;;;;;8.07;3.50;;;11.20;99.90;;;;;;4951869;28;20238;-84
2023/10/31 02:19:52;;;;;;;4.20;3.77;;;11.20;99.90;;;;;;4953964;28;20259;-84
2023/10/31 02:22:21;;;;;;;4.80;3.27;;;11.20;99.90;;;;;;4956057;28;20246;-83
2023/10/31 02:24:48;;;;;;;5.50;3.87;;;11.10;99.90;;;;;;4955513;28;20308;-85
2023/10/31 02:27:15;;;;;;;7.60;4.17;;;11.10;99.90;;;;;;4960257;28;20504;-83
2023/10/31 02:29:41;;;;;;;5.87;3.70;;;11.10;99.90;;;;;;4992821;28;20236;-83
2023/10/31 02:32:08;;;;;;;6.00;4.00;;;11.10;99.90;;;;;;4979409;28;20240;-83
2023/10/31 02:34:35;;;;;;;4.20;3.73;;;11.10;99.90;;;;;;4976155;28;20223;-84
2023/10/31 02:37:02;;;;;;;7.50;3.97;;;11.10;99.90;;;;;;4958737;28;20248;-84
2023/10/31 02:39:30;;;;;;;8.13;4.60;;;11.10;99.90;;;;;;4951123;28;20288;-84
2023/10/31 02:41:57;;;;;;;5.00;3.90;;;11.10;99.90;;;;;;4969045;28;20237;-84
2023/10/31 02:44:24;;;;;;;5.77;4.90;;;11.10;99.90;;;;;;4956637;28;20477;-84
2023/10/31 02:46:51;;;;;;;6.97;5.00;;;11.10;99.90;;;;;;4953902;28;20230;-85
2023/10/31 02:49:17;;;;;;;7.37;5.10;;;11.10;99.90;;;;;;4949889;28;20232;-85
2023/10/31 02:51:44;;;;;;;8.03;4.90;;;11.10;99.90;;;;;;4957895;28;20224;-84
2023/10/31 02:54:11;;;;;;;7.27;5.63;;;11.10;99.90;;;;;;4958478;28;20224;-85
2023/10/31 02:56:39;;;;;;;11.13;6.17;;;11.10;99.90;;;;;;4973996;28;20799;-85
2023/10/31 02:59:05;;;;;;;7.13;5.87;;;11.10;99.90;;;;;;4980566;28;20794;-85
2023/10/31 03:01:32;;;;;;;8.03;5.83;;;11.10;99.90;;;;;;4956474;28;20225;-84
2023/10/31 03:04:00;;;;;;;8.93;6.00;;;11.10;99.90;;;;;;4958805;28;20242;-84
2023/10/31 03:06:27;;;;;;;9.40;6.50;;;11.10;99.90;;;;;;4969540;28;20256;-85
2023/10/31 03:08:53;;;;;;;9.90;5.90;;;11.10;99.90;;;;;;4957354;28;20238;-85
2023/10/31 03:11:23;;;;;;;6.70;5.87;;;11.10;99.90;;;;;;4955346;28;20225;-86
2023/10/31 03:13:51;;;;;;;8.63;5.70;;;11.00;99.90;;;;;;4973658;28;20246;-85
2023/10/31 03:16:19;;;;;;;6.80;6.07;;;11.00;99.90;;;;;;4972884;28;20232;-85
2023/10/31 03:18:46;;;;;;;8.60;6.93;;;11.00;99.90;;;;;;4958199;28;20232;-85
2023/10/31 03:21:14;;;;;;;8.30;6.33;;;11.00;99.90;;;;;;4950454;28;20233;-84
2023/10/31 03:23:42;;;;;;;8.53;6.07;;;11.00;99.90;;;;;;4968295;28;20626;-84
2023/10/31 03:26:09;;;;;;;8.47;6.27;;;11.10;99.90;;;;;;4976648;28;20709;-84
2023/10/31 03:28:35;;;;;;;7.10;6.00;;;11.00;99.90;;;;;;4966396;28;20226;-84
2023/10/31 03:31:05;;;;;;;7.13;5.87;;;11.00;99.90;;;;;;4955400;28;20230;-84
2023/10/31 03:33:32;;;;;;;8.20;6.37;;;11.00;99.90;;;;;;4967273;28;20393;-83
2023/10/31 03:35:58;;;;;;;9.53;7.20;;;11.00;99.90;;;;;;4979203;28;20618;-83
2023/10/31 03:38:24;;;;;;;9.47;6.80;;;11.00;99.90;;;;;;4979093;28;20505;-83
2023/10/31 03:40:51;;;;;;;8.63;7.20;;;11.00;99.90;;;;;;4976352;28;20231;-83
2023/10/31 03:43:18;;;;;;;8.17;7.00;;;11.10;99.90;;;;;;4971105;28;20267;-83
2023/10/31 03:45:46;;;;;;;8.43;6.67;;;11.00;99.90;;;;;;4962794;28;20220;-83
2023/10/31 03:48:15;;;;;;;8.70;7.13;;;11.00;99.90;;;;;;4977887;28;20562;-81
2023/10/31 03:50:41;;;;;;;7.40;6.70;;;11.00;99.90;;;;;;4955635;28;20306;-81
2023/10/31 03:53:08;;;;;;;8.27;6.93;;;11.00;99.90;;;;;;4946421;28;20250;-81
2023/10/31 03:55:35;;;;;;;8.90;7.07;;;11.00;99.90;;;;;;4952501;28;20651;-82
2023/10/31 03:58:01;;;;;;;9.73;7.00;;;11.00;99.90;;;;;;4953532;28;20448;-82
2023/10/31 04:00:27;;;;;;;13.47;7.63;;;11.00;99.90;;;;;;4948441;28;20225;-83
2023/10/31 04:02:54;;;;;;;10.67;6.83;;;11.10;99.90;;;;;;4950188;28;20262;-83
2023/10/31 04:05:23;;;;;;;10.17;7.17;;;11.00;99.90;;;;;;4953149;28;20595;-83
2023/10/31 04:07:50;;;;;;;7.27;6.53;;;11.10;99.90;;;;;;4969794;28;20457;-83
2023/10/31 04:10:18;;;;;;;9.77;6.33;;;11.10;99.90;;;;;;4946231;28;20225;-83
2023/10/31 04:12:45;;;;;;;7.90;7.07;;;11.10;99.90;;;;;;4945580;28;20219;-82
2023/10/31 04:15:12;;;;;;;9.40;6.40;;;11.10;99.90;;;;;;4964969;28;20230;-81
2023/10/31 04:17:39;;;;;;;8.73;6.97;;;11.10;99.90;;;;;;4954480;28;20239;-82
2023/10/31 04:20:07;;;;;;;8.90;6.70;;;11.10;99.90;;;;;;4966854;28;20314;-82
2023/10/31 04:22:35;;;;;;;8.53;6.90;;;11.10;99.90;;;;;;4951278;28;20230;-81
2023/10/31 04:25:01;;;;;;;7.90;6.97;;;11.20;99.90;;;;;;4950658;28;20229;-82
2023/10/31 04:27:28;;;;;;;10.53;6.57;;;11.20;99.90;;;;;;4954316;28;20224;-81
2023/10/31 04:29:55;;;;;;;11.40;6.30;;;11.20;99.90;;;;;;4959041;28;20224;-81
2023/10/31 04:32:21;;;;;;;8.67;6.53;;;11.20;99.90;;;;;;4970211;28;20741;-81
2023/10/31 04:34:48;;;;;;;12.03;6.93;;;11.20;99.90;;;;;;4958730;28;20735;-81
2023/10/31 04:37:15;;;;;;;10.37;6.73;;;11.20;99.90;;;;;;4954807;28;20318;-82
2023/10/31 04:39:43;;;;;;;8.20;6.13;;;11.20;99.90;;;;;;4955019;28;20313;-81
2023/10/31 04:42:10;;;;;;;10.03;6.43;;;11.20;99.90;;;;;;4967328;28;20227;-81
2023/10/31 04:44:36;;;;;;;7.80;6.83;;;11.20;99.90;;;;;;4951017;28;20228;-82
2023/10/31 04:47:03;;;;;;;10.13;6.40;;;11.30;99.90;;;;;;4971818;28;20229;-82
2023/10/31 04:49:30;;;;;;;9.33;6.60;;;11.30;99.90;;;;;;4966176;28;20236;-81
2023/10/31 04:51:57;;;;;;;8.80;6.47;;;11.30;99.90;;;;;;4946893;28;20768;-82
2023/10/31 04:54:24;;;;;;;8.90;6.40;;;11.30;99.90;;;;;;4965942;28;20241;-82
2023/10/31 04:56:52;;;;;;;9.50;6.57;;;11.30;99.90;;;;;;4965720;28;20233;-82
2023/10/31 04:59:18;;;;;;;8.37;6.80;;;11.30;99.90;;;;;;4946211;28;20591;-82
2023/10/31 05:01:50;;;;;;;8.20;6.50;;;11.30;99.90;;;;;;4957515;28;20223;-82
2023/10/31 05:04:17;;;;;;;9.93;6.93;;;11.30;99.90;;;;;;4967245;28;20223;-83
2023/10/31 05:06:44;;;;;;;9.07;6.87;;;11.40;99.90;;;;;;4959125;28;20222;-82
2023/10/31 05:09:11;;;;;;;8.27;6.30;;;11.40;99.90;;;;;;4958195;28;20779;-83
2023/10/31 05:11:38;;;;;;;9.17;6.67;;;11.40;99.90;;;;;;4954721;28;20239;-83
2023/10/31 05:14:08;;;;;;;7.67;6.40;;;11.40;99.90;;;;;;4953459;28;20235;-82
2023/10/31 05:16:40;;;;;;;10.20;6.87;;;11.40;99.90;;;;;;4953506;28;20224;-83
2023/10/31 05:19:07;;;;;;;9.87;6.90;;;11.40;99.90;;;;;;4952226;28;20284;-82
2023/10/31 05:21:33;;;;;;;8.83;6.60;;;11.50;99.90;;;;;;4956152;28;20232;-82
2023/10/31 05:24:00;;;;;;;9.20;6.50;;;11.40;99.90;;;;;;4971417;28;20464;-82
2023/10/31 05:26:27;;;;;;;10.43;7.00;;;11.50;99.90;;;;;;4975679;28;20244;-78
2023/10/31 05:28:54;;;;;;;9.80;7.20;;;11.50;99.90;;;;;;4967187;28;20227;-81
2023/10/31 05:31:22;;;;;;;8.97;6.33;;;11.50;99.90;;;;;;4950716;28;20215;-81
2023/10/31 05:33:49;;;;;;;7.87;6.33;;;11.50;99.90;;;;;;4954061;28;20234;-81
2023/10/31 05:36:19;;;;;;;7.70;6.53;;;11.50;99.90;;;;;;4953521;28;20228;-82
2023/10/31 05:38:46;;;;;;;7.67;5.93;;;11.50;99.90;;;;;;4950750;28;20760;-81
2023/10/31 05:41:12;;;;;;;10.57;7.43;;;11.50;99.90;;;;;;4958102;28;20598;-81
2023/10/31 05:43:39;;;;;;;8.40;6.53;;;11.60;99.90;;;;;;4981425;28;20260;-82
2023/10/31 05:46:06;;;;;;;8.83;6.23;;;11.60;99.90;;;;;;4956493;28;20315;-82
2023/10/31 05:48:35;;;;;;;8.77;5.90;;;11.50;99.90;;;;;;4959127;28;20229;-82
2023/10/31 05:51:17;;;;;;;6.87;5.77;;;11.60;99.90;;;;;;5085258;28;21104;-80
2023/10/31 05:53:45;;;;;;;7.40;6.30;;;11.50;99.90;;;;;;5074518;28;20366;-79
2023/10/31 05:56:13;;;;;;;7.97;5.90;;;11.60;99.90;;;;;;5078175;28;20795;-80
2023/10/31 05:58:41;;;;;;;8.40;6.40;;;11.60;99.90;;;;;;5086164;28;20248;-80
2023/10/31 06:01:08;;;;;;;7.13;6.43;;;11.60;99.90;;;;;;5078437;28;20233;-80
2023/10/31 06:03:35;;;;;;;9.13;6.40;;;11.60;99.90;;;;;;5086551;28;20292;-80
2023/10/31 06:06:02;;;;;;;9.23;6.67;;;11.60;99.90;;;;;;5080913;28;20218;-80
2023/10/31 06:08:30;;;;;;;8.07;6.40;;;11.70;99.90;;;;;;5081561;28;20257;-80
2023/10/31 06:10:57;;;;;;;7.60;6.63;;;11.70;99.90;;;;;;5084078;28;20243;-80
2023/10/31 06:13:25;;;;;;;7.90;6.93;;;11.70;99.90;;;;;;5095513;28;20403;-80
2023/10/31 06:15:52;;;;;;;9.90;6.63;;;11.70;99.90;;;;;;5076516;28;20219;-80
2023/10/31 06:18:19;;;;;;;8.50;6.93;;;11.70;99.90;;;;;;5095558;28;20233;-81
2023/10/31 06:20:45;;;;;;;8.60;6.73;;;11.70;99.90;;;;;;5075075;28;20222;-81
2023/10/31 06:23:12;;;;;;;8.67;6.70;;;11.70;99.90;;;;;;5081602;28;20509;-80
2023/10/31 06:25:40;;;;;;;9.37;7.20;;;11.70;99.90;;;;;;5089364;28;20233;-80
2023/10/31 06:28:07;;;;;;;8.70;7.57;;;11.70;99.90;;;;;;5078329;28;20248;-78
2023/10/31 06:30:33;;;;;;;8.17;7.27;;;11.70;99.90;;;;;;5078916;28;20229;-81
2023/10/31 06:33:00;;;;;;;10.40;7.37;;;11.70;99.90;;;;;;5079630;28;20233;-81
2023/10/31 06:35:27;;;;;;;11.03;7.53;;;11.80;99.90;;;;;;5078239;28;20467;-81
2023/10/31 06:37:56;;;;;;;10.20;7.83;;;11.70;99.90;;;;;;5080504;28;20229;-81
2023/10/31 06:40:24;;;;;;;8.23;7.03;;;11.80;99.90;;;;;;5075814;28;20219;-81
2023/10/31 06:42:52;;;;;;;8.77;7.60;;;11.70;99.90;;;;;;5077658;28;20336;-81
2023/10/31 06:45:18;;;;;;;7.40;6.63;;;11.80;99.90;;;;;;5078526;28;20306;-81
2023/10/31 06:47:45;;;;;;;8.00;6.83;;;11.80;99.90;;;;;;5074951;28;20312;-81
2023/10/31 06:50:12;;;;;;;7.53;6.57;;;11.80;99.90;;;;;;5076917;28;20225;-82
2023/10/31 06:52:38;;;;;;;11.33;6.53;;;11.80;99.90;;;;;;5079436;28;20311;-82
2023/10/31 06:55:06;;;;;;;6.30;5.07;;;11.80;99.90;;;;;;5078124;28;20919;-81
2023/10/31 06:57:33;;;;;;;6.57;5.10;;;11.80;99.90;;;;;;5078388;28;20738;-81
2023/10/31 07:00:01;;;;;;;3.87;3.47;;;11.80;99.90;;;;;;5080580;28;20230;-81
2023/10/31 07:02:28;;;;;;;4.40;3.00;;;11.80;99.90;;;;;;5055169;28;20233;-81
2023/10/31 07:04:54;;;;;;;2.40;1.90;;;11.80;99.90;;;;;;5067607;28;20231;-80
2023/10/31 07:07:21;;;;;;;1.93;1.73;;;11.80;99.90;;;;;;5068240;28;20656;-81
2023/10/31 07:09:48;;;;;;;5.17;1.37;;;11.80;99.90;;;;;;5082647;28;20222;-81
2023/10/31 07:12:14;;;;;;;1.40;1.13;;;11.80;99.90;;;;;;5066632;28;20338;-81
2023/10/31 07:14:41;;;;;;;2.03;1.10;;;11.80;99.90;;;;;;5067565;28;20232;-80
2023/10/31 07:17:09;;;;;;;2.00;1.47;;;11.80;99.90;;;;;;5069490;28;20227;-80
2023/10/31 07:19:36;;;;;;;2.93;1.77;;;11.70;99.90;;;;;;5067181;28;20219;-80
2023/10/31 07:22:03;;;;;;;3.10;1.47;;;11.70;99.90;;;;;;5072664;28;20227;-81
2023/10/31 07:24:29;;;;;;;3.37;1.90;;;11.70;99.90;;;;;;5070550;28;20238;-81
2023/10/31 07:26:56;;;;;;;3.20;2.10;;;11.70;99.90;;;;;;5027056;28;21219;-82
2023/10/31 07:29:23;;;;;;;2.53;1.90;;;11.70;99.90;;;;;;5007477;28;20402;-82
2023/10/31 07:31:49;;;;;;;4.00;3.60;;;11.70;99.90;;;;;;5009182;28;20220;-83
2023/10/31 07:34:17;;;;;;;4.00;3.60;;;11.70;99.90;;;;;;5011546;28;20746;-84
2023/10/31 07:36:44;;;;;;;4.20;3.80;;;11.70;99.90;;;;;;5014444;28;20230;-84
2023/10/31 07:39:12;;;;;;;5.40;4.47;;;11.70;99.90;;;;;;5017311;28;20233;-83
2023/10/31 07:41:39;;;;;;;6.30;5.37;;;11.60;99.90;;;;;;5023338;28;20221;-83
2023/10/31 07:44:09;;;;;;;8.00;5.90;;;11.60;99.90;;;;;;5010224;28;20232;-83
2023/10/31 07:46:36;;;;;;;7.67;6.70;;;11.60;99.90;;;;;;5010446;28;20225;-82
2023/10/31 07:49:02;;;;;;;9.13;8.17;;;11.60;99.90;;;;;;5006909;28;20224;-83
2023/10/31 07:51:30;;;;;;;11.10;9.20;;;11.60;99.90;;;;;;5005711;28;20314;-85
2023/10/31 07:53:58;;;;;;;11.23;9.97;;;11.60;99.90;;;;;;5009271;28;20258;-83
2023/10/31 07:56:25;;;;;;;10.43;9.07;;;11.60;99.90;;;;;;5002142;28;20259;-83
2023/10/31 07:58:52;;;;;;;11.60;9.40;;;11.50;99.90;;;;;;5015061;28;20315;-81
2023/10/31 08:01:19;;;;;;;37.27;11.50;;;11.50;99.90;;;;;;5007556;28;20245;-79
2023/10/31 08:03:46;;;;;;;9.97;8.67;;;11.50;99.90;;;;;;5000475;28;20231;-82
2023/10/31 08:06:13;;;;;;;14.83;9.27;;;11.40;99.90;;;;;;5015131;28;20232;-82
2023/10/31 08:08:41;;;;;;;10.63;7.37;;;11.40;99.90;;;;;;5014789;28;20230;-83
2023/10/31 08:11:09;;;;;;;9.67;6.03;;;11.40;99.90;;;;;;5011782;28;20234;-81
2023/10/31 08:13:36;;;;;;;5.87;4.93;;;11.40;99.90;;;;;;5004284;28;20289;-82
2023/10/31 08:16:03;;;;;;;3.57;2.90;;;11.30;99.90;;;;;;5014272;28;20316;-80
2023/10/31 08:18:30;;;;;;;2.60;2.20;;;11.30;99.90;;;;;;5000176;28;20226;-81
2023/10/31 08:20:57;;;;;;;3.30;1.97;;;11.20;99.90;;;;;;5005015;28;20213;-81
2023/10/31 08:23:26;;;;;;;2.93;1.70;;;11.20;99.90;;;;;;5009526;28;20311;-82
2023/10/31 08:25:54;;;;;;;3.43;1.10;;;11.20;99.90;;;;;;5009204;28;20520;-81
2023/10/31 08:28:20;;;;;;;1.10;0.90;;;11.10;99.90;;;;;;5008015;28;20732;-82
2023/10/31 08:30:47;;;;;;;1.90;0.87;;;11.10;99.90;;;;;;5022927;28;20336;-81
2023/10/31 08:33:14;;;;;;;0.83;0.70;;;11.00;99.90;;;;;;5001745;28;20280;-81
2023/10/31 08:35:42;;;;;;;1.23;0.80;;;11.00;99.90;;;;;;5016177;28;20222;-81
2023/10/31 08:38:09;;;;;;;0.90;0.63;;;11.00;99.90;;;;;;5008391;28;20223;-82
2023/10/31 08:40:36;;;;;;;1.20;0.70;;;10.90;99.90;;;;;;5007307;28;20308;-81
2023/10/31 08:43:06;;;;;;;0.57;0.40;;;10.90;99.90;;;;;;5008598;28;20280;-83
2023/10/31 08:45:33;;;;;;;1.83;0.80;;;10.90;99.90;;;;;;5013068;28;20308;-82
2023/10/31 08:47:59;;;;;;;0.73;0.50;;;10.80;99.90;;;;;;5014200;28;20228;-83
2023/10/31 08:50:26;;;;;;;0.87;0.63;;;10.80;99.90;;;;;;5016187;28;20332;-82
2023/10/31 08:52:53;;;;;;;1.03;0.60;;;10.80;99.90;;;;;;4996373;28;20341;-83
2023/10/31 08:55:20;;;;;;;0.70;0.53;;;10.80;99.90;;;;;;5011495;28;20323;-83
2023/10/31 08:57:46;;;;;;;0.50;0.50;;;10.80;99.90;;;;;;5010160;28;20264;-81
2023/10/31 09:00:15;;;;;;;0.90;0.50;;;10.70;99.90;;;;;;5000904;28;20232;-82
2023/10/31 09:02:42;;;;;;;1.70;0.83;;;10.70;99.90;;;;;;5003194;28;20222;-83
2023/10/31 09:05:09;;;;;;;0.80;0.70;;;10.70;99.90;;;;;;5002632;28;20297;-82
2023/10/31 09:07:36;;;;;;;1.37;0.90;;;10.70;99.90;;;;;;5011543;28;20227;-81
2023/10/31 09:10:05;;;;;;;1.57;1.30;;;10.70;99.90;;;;;;5022755;28;20221;-82
2023/10/31 09:12:31;;;;;;;2.00;1.80;;;10.70;99.90;;;;;;5015790;28;20225;-82
2023/10/31 09:14:58;;;;;;;1.80;1.70;;;10.70;99.90;;;;;;5017923;28;20222;-81
2023/10/31 09:17:26;;;;;;;1.70;1.60;;;10.70;99.90;;;;;;5000954;28;20740;-81
2023/10/31 09:19:53;;;;;;;1.63;1.53;;;10.70;99.90;;;;;;5003697;28;20328;-82
2023/10/31 09:22:20;;;;;;;1.47;1.37;;;10.70;99.90;;;;;;5001113;28;20249;-81
2023/10/31 09:24:47;;;;;;;1.03;1.03;;;10.70;99.90;;;;;;5017635;28;20785;-80
2023/10/31 09:27:13;;;;;;;1.67;1.13;;;10.80;99.90;;;;;;5006705;28;20225;-80
2023/10/31 09:29:41;;;;;;;0.70;0.70;;;10.80;99.90;;;;;;5009947;28;20224;-80
2023/10/31 09:32:08;;;;;;;0.73;0.73;;;10.80;99.90;;;;;;5009126;28;20240;-80
2023/10/31 09:34:36;;;;;;;1.50;0.70;;;10.80;99.90;;;;;;5003237;28;20237;-80
2023/10/31 09:37:02;;;;;;;0.70;0.60;;;10.90;99.90;;;;;;5001324;28;20220;-80
2023/10/31 09:39:29;;;;;;;1.73;0.80;;;10.90;99.90;;;;;;5008676;28;20237;-80
2023/10/31 09:41:56;;;;;;;0.80;0.80;;;10.90;99.90;;;;;;5004982;28;20241;-80
2023/10/31 09:44:23;;;;;;;3.43;1.03;;;10.90;99.90;;;;;;5001770;28;20561;-81
2023/10/31 09:46:50;;;;;;;2.90;0.80;;;10.90;99.90;;;;;;5006932;28;20268;-81
2023/10/31 09:49:17;;;;;;;4.47;0.90;;;10.90;99.90;;;;;;5007248;28;20738;-81
2023/10/31 09:51:48;;;;;;;1.00;0.60;;;10.90;99.90;;;;;;5015338;28;20226;-83
2023/10/31 09:54:17;;;;;;;0.60;0.30;;;10.90;99.90;;;;;;5026183;28;20222;-82
2023/10/31 09:56:44;;;;;;;1.17;0.40;;;10.90;99.90;;;;;;5022994;28;20576;-81
2023/10/31 09:59:10;;;;;;;1.37;0.33;;;10.80;99.90;;;;;;5030314;28;20345;-83
2023/10/31 10:01:37;;;;;;;2.03;0.30;;;10.70;99.90;;;;;;5012969;28;20224;-82
2023/10/31 10:04:04;;;;;;;0.70;0.20;;;10.70;99.90;;;;;;5003665;28;20271;-81
2023/10/31 10:06:35;;;;;;;0.93;0.20;;;10.60;99.90;;;;;;5016765;28;20232;-81
2023/10/31 10:09:06;;;;;;;2.57;0.40;;;10.50;99.90;;;;;;5004438;28;20315;-81
2023/10/31 10:11:34;;;;;;;0.60;0.20;;;10.50;99.90;;;;;;4999992;28;20307;-78
2023/10/31 10:14:02;;;;;;;0.50;0.20;;;10.40;99.90;;;;;;5015292;28;20737;-79
2023/10/31 10:16:32;;;;;;;0.63;0.20;;;10.30;99.90;;;;;;5005925;28;20225;-78
2023/10/31 10:19:19;;;;;;;1.43;0.23;;;10.20;99.90;;;;;;5005233;28;20601;-78
2023/10/31 10:21:48;;;;;;;1.43;0.40;;;10.10;99.90;;;;;;5010604;28;20221;-78
2023/10/31 10:24:16;;;;;;;0.20;0.20;;;10.00;99.90;;;;;;5011130;28;20217;-78
2023/10/31 10:26:43;;;;;;;1.23;0.40;;;10.00;99.90;;;;;;4998108;28;20225;-79
2023/10/31 10:29:10;;;;;;;2.17;0.50;;;9.90;99.90;;;;;;4999023;28;20268;-80
2023/10/31 10:31:37;;;;;;;2.00;0.40;;;9.90;99.90;;;;;;4996556;28;20590;-82
2023/10/31 10:34:04;;;;;;;2.00;0.50;;;9.80;99.90;;;;;;5000007;28;20241;-81
2023/10/31 10:36:33;;;;;;;2.10;0.70;;;9.80;99.90;;;;;;5027173;28;20229;-83
2023/10/31 10:39:00;;;;;;;1.13;0.30;;;9.70;99.90;;;;;;5034884;28;20233;-80
2023/10/31 10:41:29;;;;;;;0.40;0.40;;;9.70;99.90;;;;;;5024952;28;20708;-80
2023/10/31 10:43:57;;;;;;;0.50;0.40;;;9.60;99.90;;;;;;5006465;28;20239;-80
2023/10/31 10:46:26;;;;;;;1.93;0.30;;;9.60;99.90;;;;;;5003230;28;20232;-80
2023/10/31 10:48:57;;;;;;;0.40;0.30;;;9.60;99.90;;;;;;5015023;28;20236;-81
2023/10/31 10:51:29;;;;;;;0.57;0.40;;;9.50;99.90;;;;;;5009113;28;20255;-81
2023/10/31 10:54:03;;;;;;;0.80;0.60;;;9.50;99.90;;;;;;5016120;28;20232;-80
2023/10/31 10:56:38;;;;;;;0.73;0.40;;;9.40;99.90;;;;;;5020717;28;20697;-80
2023/10/31 10:59:12;;;;;;;0.80;0.50;;;9.40;99.90;;;;;;5015854;28;20747;-82
2023/10/31 11:01:40;;;;;;;0.43;0.33;;;9.40;99.90;;;;;;5011216;28;20223;-78
2023/10/31 11:04:08;;;;;;;0.60;0.53;;;9.40;99.90;;;;;;5006168;28;20233;-80
2023/10/31 11:06:37;;;;;;;1.73;0.70;;;9.40;99.90;;;;;;5015245;28;20217;-82
2023/10/31 11:09:06;;;;;;;2.93;0.50;;;9.40;99.90;;;;;;5005706;28;20333;-80
2023/10/31 11:11:34;;;;;;;0.67;0.50;;;9.40;99.90;;;;;;5014998;28;20881;-79
2023/10/31 11:14:02;;;;;;;0.57;0.40;;;9.40;99.90;;;;;;5006742;28;20234;-79
2023/10/31 11:16:36;;;;;;;1.47;0.50;;;9.40;99.90;;;;;;5013253;28;20224;-79
2023/10/31 11:19:04;;;;;;;1.53;0.50;;;9.40;99.90;;;;;;5016159;28;20242;-81
2023/10/31 11:21:30;;;;;;;2.73;0.60;;;9.40;99.90;;;;;;5010978;28;20225;-80
2023/10/31 11:24:01;;;;;;;0.50;0.40;;;9.40;99.90;;;;;;5021475;28;20315;-80
2023/10/31 11:26:30;;;;;;;0.57;0.40;;;9.50;99.90;;;;;;5003568;28;20229;-81
2023/10/31 11:29:06;;;;;;;1.33;0.50;;;9.50;99.90;;;;;;5000265;28;20236;-80
2023/10/31 11:31:33;;;;;;;0.67;0.50;;;9.50;99.90;;;;;;5012983;28;20718;-80
2023/10/31 11:34:01;;;;;;;0.40;0.40;;;9.60;99.90;;;;;;5005802;28;20312;-82
2023/10/31 11:36:32;;;;;;;2.00;0.77;;;9.60;99.90;;;;;;5020473;28;20335;-79
2023/10/31 11:39:12;;;;;;;0.70;0.60;;;9.60;99.90;;;;;;5017308;28;20246;-79
2023/10/31 11:41:40;;;;;;;1.37;0.60;;;9.60;99.90;;;;;;4999332;28;20260;-79
2023/10/31 11:44:08;;;;;;;0.60;0.50;;;9.60;99.90;;;;;;5022379;28;20237;-79
2023/10/31 11:46:34;;;;;;;0.70;0.60;;;9.60;99.90;;;;;;5020236;28;20216;-79
2023/10/31 11:49:02;;;;;;;3.17;0.70;;;9.60;99.90;;;;;;5002079;28;20320;-80
2023/10/31 11:51:28;;;;;;;1.30;0.80;;;9.70;99.90;;;;;;5002357;28;20802;-80
2023/10/31 11:53:56;;;;;;;1.00;0.60;;;9.70;99.90;;;;;;5019347;28;20233;-80
2023/10/31 11:56:23;;;;;;;0.63;0.60;;;9.70;99.90;;;;;;5002881;28;20224;-80
2023/10/31 11:58:57;;;;;;;1.40;0.90;;;9.70;99.90;;;;;;5005601;28;20313;-79
2023/10/31 12:01:25;;;;;;;2.37;1.47;;;9.80;99.90;;;;;;5007422;28;20596;-80
2023/10/31 12:03:51;;;;;;;2.20;1.20;;;9.80;99.90;;;;;;5007171;28;20699;-79
2023/10/31 12:06:20;;;;;;;1.20;1.00;;;9.90;99.90;;;;;;5017195;28;20224;-79
2023/10/31 12:08:49;;;;;;;1.70;1.00;;;9.90;99.90;;;;;;5009331;28;20364;-79
2023/10/31 12:11:17;;;;;;;1.47;1.10;;;10.00;99.90;;;;;;5006659;28;20709;-80
2023/10/31 12:13:55;;;;;;;2.23;1.17;;;10.10;99.90;;;;;;5005838;28;20567;-80
2023/10/31 12:16:26;;;;;;;1.00;0.90;;;10.20;99.90;;;;;;4999573;28;20221;-81
2023/10/31 12:18:57;;;;;;;1.60;0.90;;;10.30;99.90;;;;;;5002107;28;20429;-81
2023/10/31 12:21:39;;;;;;;1.37;1.10;;;10.30;99.90;;;;;;5008233;28;20364;-80
2023/10/31 12:24:07;;;;;;;1.43;1.20;;;10.40;99.90;;;;;;5011850;28;20231;-80
2023/10/31 12:26:35;;;;;;;1.47;1.27;;;10.50;99.90;;;;;;5011172;28;20288;-80
2023/10/31 12:29:09;;;;;;;1.73;1.20;;;10.50;99.90;;;;;;5020368;28;20222;-80
2023/10/31 12:31:40;;;;;;;2.47;1.60;;;10.60;99.90;;;;;;5018709;28;20228;-80
2023/10/31 12:34:07;;;;;;;2.80;1.73;;;10.70;99.90;;;;;;5005370;28;20580;-80
2023/10/31 12:36:34;;;;;;;1.60;1.47;;;10.70;99.90;;;;;;5005819;28;20645;-81
2023/10/31 12:39:01;;;;;;;1.87;1.70;;;10.80;99.90;;;;;;5007995;28;20226;-80
2023/10/31 12:41:28;;;;;;;3.40;1.70;;;10.90;99.90;;;;;;5019710;28;20234;-80
2023/10/31 12:43:55;;;;;;;1.90;1.40;;;11.00;99.90;;;;;;5004303;28;20221;-81
2023/10/31 12:46:26;;;;;;;2.77;1.20;;;11.00;99.90;;;;;;4993268;28;20233;-80
2023/10/31 12:48:54;;;;;;;1.70;1.13;;;11.10;99.90;;;;;;5001705;28;20710;-80
2023/10/31 12:51:20;;;;;;;1.90;1.73;;;11.10;99.90;;;;;;5004750;28;20236;-80